Terminal Aerodrome Forecast
Issued by NWS

Home | Current Version | Previous Version | Text Only | Print | Product List | Glossary On
Versions: 1 2 3 4 5 6 7 8 9 10 11 12 13 14 15 16 17 18
000
FTUS41 KBTV 202338
TAFMSS
TAF
KMSS 202338Z 2100/2124 VRB04KT P6SM OVC050
      TEMPO 2102/2106 OVC030
     FM211100 22010KT P6SM SCT050
     FM211500 22015G25KT P6SM SCT200=

USA.gov is the U.S. government's official web portal to all federal, state and local government web resources and services.